createdAt,value
2023-04-20T00:04:18.716Z,8.52
2023-04-20T00:09:20.520Z,8.47
2023-04-20T00:14:22.602Z,8.45
2023-04-20T00:19:24.410Z,8.45
2023-04-20T00:24:26.540Z,8.44
2023-04-20T00:29:28.438Z,8.43
2023-04-20T00:34:32.932Z,8.45
2023-04-20T00:39:36.103Z,8.46
2023-04-20T00:44:38.871Z,8.47
2023-04-20T00:49:40.876Z,8.47
2023-04-20T00:54:45.558Z,8.49
2023-04-20T00:59:48.009Z,8.53
2023-04-20T01:04:50.402Z,8.56
2023-04-20T01:09:52.716Z,8.59
2023-04-20T01:14:54.902Z,8.60
2023-04-20T01:19:56.694Z,8.58
2023-04-20T01:24:59.164Z,8.58
2023-04-20T01:30:01.924Z,8.58
2023-04-20T01:35:05.351Z,8.58
2023-04-20T01:40:13.017Z,8.58
2023-04-20T01:45:15.164Z,8.57
2023-04-20T01:50:17.049Z,8.58
2023-04-20T01:55:20.276Z,8.59
2023-04-20T02:00:22.763Z,8.55
2023-04-20T02:05:25.162Z,8.51
2023-04-20T02:10:27.021Z,8.49
2023-04-20T02:15:29.446Z,8.45
2023-04-20T02:20:31.401Z,8.42
2023-04-20T02:25:33.721Z,8.39
2023-04-20T02:30:35.920Z,8.39
2023-04-20T02:35:39.055Z,8.38
2023-04-20T02:40:41.018Z,8.36
2023-04-20T02:45:43.405Z,8.40
2023-04-20T02:50:45.894Z,8.45
2023-04-20T02:55:56.933Z,8.52
2023-04-20T03:01:09.968Z,8.57
2023-04-20T03:06:12.707Z,8.62
2023-04-20T03:11:16.160Z,8.68
2023-04-20T03:16:18.518Z,8.73
2023-04-20T03:21:26.701Z,8.75
2023-04-20T03:26:29.428Z,8.75
2023-04-20T03:31:57.643Z,8.76
2023-04-20T03:37:00.321Z,8.76
2023-04-20T03:42:02.204Z,8.77
2023-04-20T03:47:04.820Z,8.77
2023-04-20T03:52:07.391Z,8.76
2023-04-20T03:57:10.397Z,8.73
2023-04-20T04:02:15.974Z,8.75
2023-04-20T04:07:20.772Z,8.84
2023-04-20T04:12:23.220Z,8.94
2023-04-20T04:17:26.243Z,8.98
2023-04-20T04:22:31.557Z,9.04
2023-04-20T04:28:12.842Z,9.17
2023-04-20T04:33:22.042Z,9.31
2023-04-20T04:38:25.362Z,9.44
2023-04-20T04:43:27.573Z,9.61
2023-04-20T04:48:41.130Z,9.75
2023-04-20T04:53:45.242Z,9.91
2023-04-20T04:58:47.460Z,10.09
2023-04-20T05:03:49.665Z,10.37
2023-04-20T05:08:52.201Z,10.59
2023-04-20T05:13:54.726Z,10.72
2023-04-20T05:18:57.084Z,10.85
2023-04-20T05:23:58.988Z,11.00
2023-04-20T05:29:01.954Z,11.10
2023-04-20T05:34:03.955Z,11.16
2023-04-20T05:39:06.282Z,11.33
2023-04-20T05:44:08.203Z,11.58
2023-04-20T05:49:10.532Z,11.64
2023-04-20T05:54:12.637Z,11.67
2023-04-20T05:59:16.165Z,11.80
2023-04-20T06:04:19.015Z,12.05
2023-04-20T06:09:21.783Z,12.39
2023-04-20T06:14:23.781Z,12.59
2023-04-20T06:19:25.858Z,12.75
2023-04-20T06:24:28.105Z,13.07
2023-04-20T06:29:30.466Z,13.30
2023-04-20T06:34:32.728Z,13.32
2023-04-20T06:39:35.684Z,13.54
2023-04-20T06:44:37.517Z,13.84
2023-04-20T06:49:39.550Z,14.26
2023-04-20T06:54:41.324Z,14.53
2023-04-20T06:59:43.380Z,14.65
2023-04-20T07:04:45.472Z,14.94
2023-04-20T07:09:47.431Z,15.17
2023-04-20T07:14:49.354Z,15.38
2023-04-20T07:19:52.872Z,15.65
2023-04-20T07:24:54.907Z,15.86
2023-04-20T07:29:58.800Z,15.97
2023-04-20T07:35:01.048Z,16.27
2023-04-20T07:40:06.629Z,16.41
2023-04-20T07:45:11.150Z,16.30
2023-04-20T07:50:13.591Z,16.09
2023-04-20T07:55:16.742Z,15.96
2023-04-20T08:00:19.692Z,15.85
2023-04-20T08:05:23.080Z,15.77
2023-04-20T08:10:25.827Z,15.60
2023-04-20T08:15:28.088Z,15.48
2023-04-20T08:20:30.593Z,15.50
2023-04-20T08:25:32.686Z,15.61
2023-04-20T08:30:35.157Z,15.76
2023-04-20T08:35:37.417Z,16.07
2023-04-20T08:40:40.540Z,16.36
2023-04-20T08:45:49.345Z,16.59
2023-04-20T08:50:51.763Z,16.81
2023-04-20T08:55:53.675Z,17.08
2023-04-20T09:00:55.897Z,17.00
2023-04-20T09:05:58.059Z,17.13
2023-04-20T09:11:00.243Z,17.22
2023-04-20T09:16:13.622Z,17.24
2023-04-20T09:21:18.681Z,17.41
2023-04-20T09:26:21.153Z,17.50
2023-04-20T09:31:24.429Z,17.66
2023-04-20T09:36:41.273Z,17.68
2023-04-20T09:41:44.998Z,17.90
2023-04-20T09:46:47.272Z,18.25
2023-04-20T09:51:50.648Z,18.72
2023-04-20T09:56:56.115Z,19.22
2023-04-20T10:01:58.826Z,19.41
2023-04-20T10:07:06.121Z,19.28
2023-04-20T10:12:10.178Z,19.38
2023-04-20T10:17:12.220Z,19.10
2023-04-20T10:22:30.963Z,18.71
2023-04-20T10:27:33.271Z,18.48
2023-04-20T10:32:35.655Z,18.47
2023-04-20T10:37:48.853Z,18.72
2023-04-20T10:42:50.926Z,18.98
2023-04-20T10:47:52.810Z,19.14
2023-04-20T10:52:54.784Z,19.09
2023-04-20T10:57:57.064Z,18.94
2023-04-20T11:02:59.620Z,18.89
2023-04-20T11:08:02.047Z,18.83
2023-04-20T11:13:04.156Z,18.85
2023-04-20T11:18:08.214Z,18.67
2023-04-20T11:23:11.276Z,18.29
2023-04-20T11:28:13.101Z,18.16
2023-04-20T11:33:16.429Z,18.15
2023-04-20T11:38:29.805Z,18.16
2023-04-20T11:43:32.607Z,17.97
2023-04-20T11:48:34.522Z,17.68
2023-04-20T11:53:37.985Z,17.38
2023-04-20T11:58:39.765Z,17.17
2023-04-20T12:03:43.043Z,17.13
2023-04-20T12:08:48.055Z,17.48
2023-04-20T12:13:50.482Z,18.07
2023-04-20T12:18:52.370Z,18.41
2023-04-20T12:23:54.454Z,18.61
2023-04-20T12:28:57.756Z,18.79
2023-04-20T12:34:00.613Z,19.01
2023-04-20T12:39:03.668Z,19.06
2023-04-20T12:44:07.211Z,18.92
2023-04-20T12:49:10.585Z,18.79
2023-04-20T12:54:12.903Z,18.79
2023-04-20T12:59:15.667Z,18.82
2023-04-20T13:04:18.226Z,18.61
2023-04-20T13:09:20.978Z,18.27
2023-04-20T13:14:25.833Z,18.06
2023-04-20T13:19:30.227Z,17.93
2023-04-20T13:24:32.323Z,17.97
2023-04-20T13:29:34.645Z,18.12
2023-04-20T13:34:37.072Z,18.25
2023-04-20T13:39:38.977Z,18.35
2023-04-20T13:44:41.105Z,18.19
2023-04-20T13:49:43.212Z,17.90
2023-04-20T13:54:45.229Z,17.79
2023-04-20T13:59:47.110Z,17.77
2023-04-20T14:04:49.689Z,17.89
2023-04-20T14:09:53.952Z,17.99
2023-04-20T14:15:00.447Z,18.13
2023-04-20T14:20:04.471Z,18.24
2023-04-20T14:25:07.951Z,18.55
2023-04-20T14:30:10.428Z,18.84
2023-04-20T14:35:12.606Z,18.64
2023-04-20T14:40:15.643Z,18.45
2023-04-20T14:45:17.888Z,18.30
2023-04-20T14:50:20.243Z,18.37
2023-04-20T14:55:26.299Z,18.37
2023-04-20T15:00:28.451Z,18.35
2023-04-20T15:05:30.987Z,18.28
2023-04-20T15:10:33.129Z,18.30
2023-04-20T15:15:47.495Z,18.27
2023-04-20T15:20:52.704Z,18.11
2023-04-20T15:25:55.231Z,18.12
2023-04-20T15:30:57.128Z,18.18
2023-04-20T15:35:59.262Z,18.18
2023-04-20T15:41:01.099Z,18.22
2023-04-20T15:46:03.679Z,18.18
2023-04-20T15:51:05.967Z,18.10
2023-04-20T15:56:08.736Z,18.00
2023-04-20T16:01:10.776Z,17.78
2023-04-20T16:06:13.707Z,17.59
2023-04-20T16:11:15.814Z,17.50
2023-04-20T16:16:19.189Z,17.34
2023-04-20T16:21:24.755Z,17.13
2023-04-20T16:26:26.890Z,17.00
2023-04-20T16:31:29.684Z,16.84
2023-04-20T16:36:38.263Z,16.69
2023-04-20T16:41:40.222Z,16.59
2023-04-20T16:46:43.153Z,16.50
2023-04-20T16:51:45.985Z,16.35
2023-04-20T16:56:48.761Z,16.20
2023-04-20T17:01:51.250Z,16.08
2023-04-20T17:06:54.042Z,15.92
2023-04-20T17:11:59.154Z,15.72
2023-04-20T17:17:02.114Z,15.49
2023-04-20T17:22:04.749Z,15.25
2023-04-20T17:27:06.845Z,15.04
2023-04-20T17:32:09.388Z,14.83
2023-04-20T17:37:12.186Z,14.59
2023-04-20T17:42:16.581Z,14.33
2023-04-20T17:47:18.748Z,14.07
2023-04-20T17:52:22.412Z,13.83
2023-04-20T17:57:24.612Z,13.60
2023-04-20T18:02:26.554Z,13.41
2023-04-20T18:07:28.869Z,13.43
2023-04-20T18:12:31.401Z,13.64
2023-04-20T18:17:33.769Z,13.76
2023-04-20T18:22:37.118Z,13.77
2023-04-20T18:27:39.788Z,13.75
2023-04-20T18:32:42.059Z,13.75
2023-04-20T18:37:44.324Z,13.75
2023-04-20T18:42:46.341Z,13.76
2023-04-20T18:47:48.582Z,13.75
2023-04-20T18:52:51.427Z,13.78
2023-04-20T18:57:53.519Z,13.74
2023-04-20T19:02:55.769Z,13.64
2023-04-20T19:07:58.870Z,13.62
2023-04-20T19:13:01.261Z,13.57
2023-04-20T19:18:04.345Z,13.50
2023-04-20T19:23:08.682Z,13.44
2023-04-20T19:28:12.573Z,13.34
2023-04-20T19:33:15.089Z,13.24
2023-04-20T19:38:19.186Z,13.19
2023-04-20T19:43:21.357Z,13.08
2023-04-20T19:48:23.822Z,12.99
2023-04-20T19:53:26.370Z,12.90
2023-04-20T19:58:30.881Z,12.78
2023-04-20T20:03:32.868Z,12.67
2023-04-20T20:08:35.607Z,12.54
2023-04-20T20:13:37.443Z,12.42
2023-04-20T20:18:41.968Z,12.29
2023-04-20T20:23:44.009Z,12.24
2023-04-20T20:28:46.268Z,12.12
2023-04-20T20:33:48.113Z,12.04
2023-04-20T20:38:53.670Z,11.99
2023-04-20T20:43:58.164Z,11.96
2023-04-20T20:49:01.180Z,11.92
2023-04-20T20:54:03.750Z,11.86
2023-04-20T20:59:06.054Z,11.81
2023-04-20T21:04:08.230Z,11.74
2023-04-20T21:09:10.969Z,11.66
2023-04-20T21:14:13.487Z,11.58
2023-04-20T21:19:16.142Z,11.54
2023-04-20T21:24:19.299Z,11.54
2023-04-20T21:29:21.553Z,11.56
2023-04-20T21:34:23.872Z,11.57
2023-04-20T21:39:25.966Z,11.57
2023-04-20T21:44:29.917Z,11.55
2023-04-20T21:49:34.521Z,11.49
2023-04-20T21:54:40.943Z,11.43
2023-04-20T21:59:43.019Z,11.34
2023-04-20T22:04:45.795Z,11.24
2023-04-20T22:09:47.957Z,11.12
2023-04-20T22:14:49.872Z,11.00
2023-04-20T22:19:52.328Z,10.85
2023-04-20T22:24:54.718Z,10.70
2023-04-20T22:29:56.838Z,10.55
2023-04-20T22:34:58.791Z,10.42
2023-04-20T22:40:00.905Z,10.30
2023-04-20T22:45:04.246Z,10.22
2023-04-20T22:50:09.813Z,10.23
2023-04-20T22:55:11.981Z,10.26
2023-04-20T23:00:14.646Z,10.23
2023-04-20T23:05:20.457Z,10.16
2023-04-20T23:10:28.652Z,10.11
2023-04-20T23:15:34.256Z,10.05
2023-04-20T23:20:39.867Z,9.99
2023-04-20T23:25:42.067Z,9.93
2023-04-20T23:30:44.311Z,9.85
2023-04-20T23:35:46.312Z,9.74
2023-04-20T23:40:50.492Z,9.65
2023-04-20T23:45:53.686Z,9.60
2023-04-20T23:51:02.015Z,9.56
2023-04-20T23:56:05.262Z,9.53
